createdAt,value
2018-07-22T00:00:54.197Z,99719.63
2018-07-22T00:05:37.730Z,99708.94
2018-07-22T00:10:28.720Z,99710.81
2018-07-22T00:15:19.142Z,99708.98
2018-07-22T00:20:11.326Z,99702.20
2018-07-22T00:24:56.099Z,99707.23
2018-07-22T00:29:39.720Z,99711.61
2018-07-22T00:34:23.270Z,99713.66
2018-07-22T00:39:09.140Z,99712.52
2018-07-22T00:43:52.667Z,99715.46
2018-07-22T00:48:37.218Z,99712.02
2018-07-22T00:53:20.853Z,99712.81
2018-07-22T00:58:05.611Z,99715.77
2018-07-22T01:02:49.346Z,99714.63
2018-07-22T01:07:33.144Z,99717.30
2018-07-22T01:12:18.170Z,99724.00
2018-07-22T01:17:01.660Z,99726.18
2018-07-22T01:21:45.293Z,99724.29
2018-07-22T01:26:28.773Z,99723.73
2018-07-22T01:31:12.237Z,99727.48
2018-07-22T01:35:55.818Z,99738.45
2018-07-22T01:40:39.275Z,99727.52
2018-07-22T01:45:22.895Z,99723.84
2018-07-22T01:50:06.488Z,99719.63
2018-07-22T01:54:50.984Z,99717.46
2018-07-22T01:59:34.553Z,99714.06
2018-07-22T02:04:19.004Z,99717.20
2018-07-22T02:09:02.388Z,99725.38
2018-07-22T02:13:45.903Z,99714.28
2018-07-22T02:18:29.378Z,99707.28
2018-07-22T02:23:12.974Z,99724.81
2018-07-22T02:27:57.475Z,99726.34
2018-07-22T02:32:41.136Z,99720.66
2018-07-22T02:37:25.678Z,99706.70
2018-07-22T02:42:09.304Z,99722.03
2018-07-22T02:46:53.781Z,99723.66
2018-07-22T02:51:37.417Z,99730.97
2018-07-22T02:56:20.911Z,99721.64
2018-07-22T03:01:04.402Z,99718.64
2018-07-22T03:05:47.994Z,99718.69
2018-07-22T03:10:31.497Z,99725.03
2018-07-22T03:15:16.253Z,99723.22
2018-07-22T03:19:59.630Z,99719.98
2018-07-22T03:24:44.206Z,99728.86
2018-07-22T03:29:27.669Z,99730.64
2018-07-22T03:34:12.221Z,99733.74
2018-07-22T03:38:55.769Z,99732.41
2018-07-22T03:43:39.359Z,99720.89
2018-07-22T03:48:22.801Z,99724.77
2018-07-22T03:53:06.408Z,99724.14
2018-07-22T03:57:50.921Z,99725.23
2018-07-22T04:02:34.369Z,99721.42
2018-07-22T04:07:18.885Z,99723.89
2018-07-22T04:12:02.505Z,99728.88
2018-07-22T04:16:46.272Z,99728.67
2018-07-22T04:21:29.809Z,99733.13
2018-07-22T04:26:14.240Z,99732.83
2018-07-22T04:30:57.634Z,99733.27
2018-07-22T04:35:41.040Z,99729.59
2018-07-22T04:40:24.501Z,99728.54
2018-07-22T04:45:08.465Z,99734.61
2018-07-22T04:49:52.047Z,99733.75
2018-07-22T04:54:35.590Z,99738.00
2018-07-22T04:59:19.320Z,99740.88
2018-07-22T05:04:03.798Z,99740.39
2018-07-22T05:08:47.220Z,99741.97
2018-07-22T05:13:30.715Z,99745.98
2018-07-22T05:18:15.187Z,99750.91
2018-07-22T05:22:58.771Z,99755.27
2018-07-22T05:27:42.445Z,99754.93
2018-07-22T05:32:25.932Z,99745.89
2018-07-22T05:37:10.547Z,99738.23
2018-07-22T05:41:54.373Z,99738.86
2018-07-22T05:46:38.386Z,99739.72
2018-07-22T05:51:22.216Z,99733.52
2018-07-22T05:56:05.783Z,99732.89
2018-07-22T06:00:49.471Z,99733.69
2018-07-22T06:05:33.126Z,99736.28
2018-07-22T06:10:16.736Z,99732.89
2018-07-22T06:15:01.662Z,99733.19
2018-07-22T06:19:45.221Z,99737.28
2018-07-22T06:24:28.921Z,99731.57
2018-07-22T06:29:12.571Z,99730.38
2018-07-22T06:33:56.190Z,99720.87
2018-07-22T06:38:39.753Z,99722.98
2018-07-22T06:43:23.301Z,99720.94
2018-07-22T06:48:07.805Z,99721.91
2018-07-22T06:52:51.213Z,99714.57
2018-07-22T06:57:35.737Z,99708.81
2018-07-22T07:02:19.336Z,99706.13
2018-07-22T07:07:03.878Z,99716.11
2018-07-22T07:11:47.353Z,99715.59
2018-07-22T07:16:30.919Z,99715.78
2018-07-22T07:21:14.458Z,99716.12
2018-07-22T07:25:58.017Z,99712.60
2018-07-22T07:30:41.551Z,99711.26
2018-07-22T07:35:25.145Z,99712.55
2018-07-22T07:40:08.628Z,99718.37
2018-07-22T07:44:52.362Z,99716.59
2018-07-22T07:49:36.062Z,99709.55
2018-07-22T07:54:19.748Z,99717.38
2018-07-22T07:59:03.181Z,99719.58
2018-07-22T08:03:46.713Z,99724.56
2018-07-22T08:08:30.627Z,99730.06
2018-07-22T08:13:15.126Z,99726.08
2018-07-22T08:17:58.605Z,99720.73
2018-07-22T08:22:43.413Z,99721.83
2018-07-22T08:27:27.141Z,99709.39
2018-07-22T08:32:10.758Z,99704.05
2018-07-22T08:36:55.325Z,99709.50
2018-07-22T08:41:39.281Z,99706.34
2018-07-22T08:46:22.781Z,99707.08
2018-07-22T08:51:06.952Z,99700.88
2018-07-22T08:55:50.702Z,99704.87
2018-07-22T09:00:34.164Z,99706.70
2018-07-22T09:05:17.558Z,99705.67
2018-07-22T09:10:01.167Z,99709.83
2018-07-22T09:14:44.680Z,99697.13
2018-07-22T09:19:28.322Z,99684.00
2018-07-22T09:24:11.966Z,99674.25
2018-07-22T09:28:55.570Z,99674.05
2018-07-22T09:33:39.235Z,99678.22
2018-07-22T09:38:24.253Z,99674.98
2018-07-22T09:43:07.993Z,99672.27
2018-07-22T09:47:51.546Z,99669.88
2018-07-22T09:52:35.113Z,99663.95
2018-07-22T09:57:19.657Z,99657.44
2018-07-22T10:02:03.278Z,99652.09
2018-07-22T10:06:46.983Z,99649.63
2018-07-22T10:11:30.610Z,99642.17
2018-07-22T10:16:14.155Z,99647.70
2018-07-22T10:20:57.586Z,99649.08
2018-07-22T10:25:41.140Z,99646.20
2018-07-22T10:30:24.649Z,99641.48
2018-07-22T10:35:08.342Z,99630.70
2018-07-22T10:39:51.761Z,99626.83
2018-07-22T10:44:36.294Z,99608.11
2018-07-22T10:49:19.942Z,99600.52
2018-07-22T10:54:03.585Z,99596.22
2018-07-22T10:58:47.951Z,99589.73
2018-07-22T11:03:31.533Z,99584.63
2018-07-22T11:08:15.226Z,99580.19
2018-07-22T11:12:59.773Z,99581.51
2018-07-22T11:17:43.343Z,99579.97
2018-07-22T11:22:26.833Z,99571.67
2018-07-22T11:27:11.276Z,99566.28
2018-07-22T11:31:54.885Z,99566.88
2018-07-22T11:36:38.467Z,99567.30
2018-07-22T11:41:22.000Z,99558.17
2018-07-22T11:46:06.406Z,99551.83
2018-07-22T11:50:49.986Z,99553.61
2018-07-22T11:55:33.668Z,99546.57
2018-07-22T12:00:17.327Z,99539.65
2018-07-22T12:05:00.782Z,99532.67
2018-07-22T12:09:44.513Z,99540.59
2018-07-22T12:15:57.309Z,99538.13
2018-07-22T12:20:41.494Z,99529.79
2018-07-22T12:25:27.921Z,99528.49
2018-07-22T12:30:13.196Z,99520.73
2018-07-22T12:34:57.597Z,99520.06
2018-07-22T12:39:41.264Z,99515.23
2018-07-22T12:44:24.771Z,99512.59
2018-07-22T12:49:08.449Z,99506.02
2018-07-22T12:53:53.168Z,99488.91
2018-07-22T12:58:36.781Z,99490.37
2018-07-22T13:03:20.412Z,99489.36
2018-07-22T13:08:04.038Z,99491.36
2018-07-22T13:12:47.721Z,99502.34
2018-07-22T13:17:31.361Z,99502.52
2018-07-22T13:22:14.843Z,99494.50
2018-07-22T13:26:59.686Z,99486.68
2018-07-22T13:31:43.342Z,99480.19
2018-07-22T13:36:26.923Z,99479.50
2018-07-22T13:41:10.438Z,99465.63
2018-07-22T13:45:54.190Z,99446.47
2018-07-22T13:50:38.264Z,99444.77
2018-07-22T13:55:22.025Z,99460.19
2018-07-22T14:00:05.655Z,99453.85
2018-07-22T14:04:49.276Z,99459.96
2018-07-22T14:09:32.888Z,99452.34
2018-07-22T14:14:16.627Z,99457.61
2018-07-22T14:19:00.185Z,99463.03
2018-07-22T14:23:43.669Z,99453.92
2018-07-22T14:28:27.238Z,99464.12
2018-07-22T14:33:10.722Z,99472.84
2018-07-22T14:37:54.299Z,99476.09
2018-07-22T14:42:37.975Z,99484.64
2018-07-22T14:47:21.428Z,99481.02
2018-07-22T14:52:04.935Z,99466.54
2018-07-22T14:56:48.985Z,99465.77
2018-07-22T15:01:32.659Z,99461.73
2018-07-22T15:06:18.038Z,99454.70
2018-07-22T15:11:01.651Z,99444.73
2018-07-22T15:15:45.415Z,99439.54
2018-07-22T15:20:29.170Z,99434.20
2018-07-22T15:25:12.883Z,99428.19
2018-07-22T15:29:56.534Z,99419.35
2018-07-22T15:34:40.289Z,99410.59
2018-07-22T15:39:23.649Z,99396.74
2018-07-22T15:44:07.233Z,99393.45
2018-07-22T15:48:51.044Z,99395.77
2018-07-22T15:53:34.391Z,99399.61
2018-07-22T15:58:18.017Z,99391.25
2018-07-22T16:03:01.655Z,99381.98
2018-07-22T16:07:45.323Z,99356.89
2018-07-22T16:12:28.921Z,99350.03
2018-07-22T16:17:12.449Z,99343.29
2018-07-22T16:21:56.981Z,99332.80
2018-07-22T16:26:40.555Z,99348.97
2018-07-22T16:31:24.075Z,99360.47
2018-07-22T16:36:07.683Z,99357.00
2018-07-22T16:40:51.163Z,99378.10
2018-07-22T16:45:35.775Z,99393.09
2018-07-22T16:50:19.238Z,99407.53
2018-07-22T16:55:03.777Z,99440.14
2018-07-22T16:59:47.141Z,99479.20
2018-07-22T17:04:30.669Z,99521.03
2018-07-22T17:09:14.242Z,99522.80
2018-07-22T17:13:57.679Z,99538.13
2018-07-22T17:18:41.136Z,99551.14
2018-07-22T17:23:24.764Z,99535.33
2018-07-22T17:28:08.367Z,99486.86
2018-07-22T17:32:51.920Z,99462.48
2018-07-22T17:37:38.852Z,99492.63
2018-07-22T17:42:22.238Z,99467.09
2018-07-22T17:47:06.271Z,99487.36
2018-07-22T17:51:49.741Z,99569.02
2018-07-22T17:56:33.091Z,99546.80
2018-07-22T18:01:16.890Z,99542.72
2018-07-22T18:06:00.787Z,99506.35
2018-07-22T18:10:44.299Z,99504.86
2018-07-22T18:15:27.958Z,99542.05
2018-07-22T18:20:11.993Z,99597.92
2018-07-22T18:24:55.938Z,99605.66
2018-07-22T18:29:39.552Z,99585.16
2018-07-22T18:34:23.491Z,99558.80
2018-07-22T18:39:09.149Z,99535.58
2018-07-22T18:43:58.009Z,99495.89
2018-07-22T18:48:42.113Z,99469.33
2018-07-22T18:53:27.055Z,99492.21
2018-07-22T18:58:10.589Z,99487.86
2018-07-22T19:02:55.162Z,99505.72
2018-07-22T19:07:38.861Z,99519.78
2018-07-22T19:12:23.524Z,99525.63
2018-07-22T19:17:10.107Z,99539.48
2018-07-22T19:21:54.690Z,99560.66
2018-07-22T19:26:38.303Z,99584.55
2018-07-22T19:31:21.927Z,99539.38
2018-07-22T19:36:06.300Z,99533.67
2018-07-22T19:40:49.836Z,99534.41
2018-07-22T19:45:33.475Z,99525.95
2018-07-22T19:50:16.972Z,99504.08
2018-07-22T19:55:00.679Z,99459.90
2018-07-22T19:59:44.269Z,99461.84
2018-07-22T20:04:27.930Z,99496.72
2018-07-22T20:09:12.663Z,99501.86
2018-07-22T20:13:57.326Z,99510.23
2018-07-22T20:18:40.953Z,99480.88
2018-07-22T20:23:25.515Z,99462.25
2018-07-22T20:28:09.158Z,99459.89
2018-07-22T20:32:52.643Z,99464.55
2018-07-22T20:37:36.237Z,99514.40
2018-07-22T20:42:20.834Z,99507.41
2018-07-22T20:47:04.277Z,99514.31
2018-07-22T20:51:48.849Z,99493.56
2018-07-22T20:56:32.208Z,99474.55
2018-07-22T21:01:15.845Z,99488.16
2018-07-22T21:05:59.484Z,99480.37
2018-07-22T21:10:43.141Z,99472.31
2018-07-22T21:15:26.780Z,99476.97
2018-07-22T21:20:10.261Z,99476.22
2018-07-22T21:24:53.799Z,99447.19
2018-07-22T21:29:37.226Z,99454.97
2018-07-22T21:34:29.874Z,99457.29
2018-07-22T21:39:13.339Z,99454.39
2018-07-22T21:43:56.802Z,99430.99
2018-07-22T21:48:40.318Z,99437.14
2018-07-22T21:53:23.759Z,99417.92
2018-07-22T21:58:07.111Z,99418.63
2018-07-22T22:02:51.821Z,99404.48
2018-07-22T22:07:35.263Z,99418.20
2018-07-22T22:12:19.673Z,99422.84
2018-07-22T22:17:03.310Z,99432.43
2018-07-22T22:21:47.798Z,99425.66
2018-07-22T22:26:31.266Z,99421.70
2018-07-22T22:31:14.950Z,99421.47
2018-07-22T22:35:58.681Z,99406.37
2018-07-22T22:40:42.309Z,99402.70
2018-07-22T22:45:27.858Z,99416.38
2018-07-22T22:50:11.421Z,99419.12
2018-07-22T22:54:56.093Z,99429.46
2018-07-22T22:59:39.665Z,99434.03
2018-07-22T23:04:24.056Z,99436.30
2018-07-22T23:09:09.456Z,99438.33
2018-07-22T23:13:54.066Z,99433.45
2018-07-22T23:18:37.557Z,99421.63
2018-07-22T23:23:21.988Z,99405.47
2018-07-22T23:28:05.664Z,99403.69
2018-07-22T23:32:50.218Z,99400.83
2018-07-22T23:37:33.862Z,99395.80
2018-07-22T23:42:18.550Z,99396.80
2018-07-22T23:47:02.064Z,99383.63
2018-07-22T23:51:46.549Z,99382.58
2018-07-22T23:56:30.059Z,99367.41
